Time;durP1;ratioP1;P1;durP2;ratioP2;P2;SDS_P1;SDS_P2;PMS_P1;PMS_P2;Temp;Humidity;BMP_temperature;BMP_pressure;BME280_temperature;BME280_humidity;BME280_pressure;Samples;Min_cycle;Max_cycle;Signal;HPM_P1;HPM_P2
2022/06/19 00:07:20;;;;;;;4.43;2.92;;;;;;;20.88;52.21;99946.25;30980291;28;97408;-76
2022/06/19 00:22:20;;;;;;;4.13;2.70;;;;;;;20.75;54.63;99931.13;30979164;28;96722;-76
2022/06/19 00:37:20;;;;;;;3.92;2.60;;;;;;;20.68;55.90;99922.31;30977315;28;97161;-63
2022/06/19 00:52:25;;;;;;;5.97;2.38;;;;;;;20.85;55.18;99911.56;30977278;28;97057;-68
2022/06/19 01:07:26;;;;;;;3.20;2.67;;;;;;;20.93;55.35;99919.28;30976551;28;96754;-77
2022/06/19 01:22:44;;;;;;;7.17;3.00;;;;;;;20.62;56.50;99919.53;30973520;28;97296;-62
2022/06/19 01:37:46;;;;;;;9.33;4.23;;;;;;;20.47;56.99;99913.84;30973314;28;96748;-77
2022/06/19 01:52:50;;;;;;;4.57;3.00;;;;;;;20.28;57.51;99916.75;30990150;28;96634;-79
2022/06/19 02:07:50;;;;;;;5.90;2.80;;;;;;;20.18;57.57;99908.44;30993548;28;97824;-79
2022/06/19 02:22:50;;;;;;;5.05;3.85;;;;;;;19.87;59.01;99899.69;30990867;28;96688;-79
2022/06/19 02:37:54;;;;;;;9.23;3.53;;;;;;;19.71;59.46;99895.84;30991438;28;96629;-78
2022/06/19 02:52:54;;;;;;;5.43;3.57;;;;;;;19.51;60.29;99896.22;30989316;28;96765;-63
2022/06/19 03:07:55;;;;;;;7.97;4.70;;;;;;;19.67;59.09;99881.16;30985295;28;97553;-79
2022/06/19 03:22:55;;;;;;;5.80;2.92;;;;;;;19.79;58.43;99873.84;30984394;28;97405;-65
2022/06/19 03:37:56;;;;;;;5.78;3.22;;;;;;;19.90;58.64;99833.53;30982413;28;97696;-78
2022/06/19 03:52:56;;;;;;;3.38;2.80;;;;;;;20.12;57.68;99836.41;30980656;28;96989;-78
2022/06/19 04:07:57;;;;;;;5.28;2.85;;;;;;;20.40;57.22;99832.03;30977397;28;97289;-62
2022/06/19 04:22:58;;;;;;;3.70;2.95;;;;;;;20.65;57.03;99801.84;30977140;28;96802;-62
2022/06/19 04:37:58;;;;;;;;;;;;;;;20.96;56.00;99808.56;30977601;28;97579;-76
2022/06/19 04:53:00;;;;;;;6.33;2.53;;;;;;;21.77;53.70;99796.38;30975885;28;98471;-80
2022/06/19 05:08:00;;;;;;;4.03;2.20;;;;;;;22.63;51.24;99808.31;30975674;28;97425;-80
2022/06/19 05:23:00;;;;;;;5.10;2.67;;;;;;;23.41;49.00;99789.81;30985205;28;100800;-75
2022/06/19 05:38:01;;;;;;;4.57;2.37;;;;;;;24.06;47.76;99784.03;30994107;28;97125;-79
2022/06/19 05:53:01;;;;;;;4.35;2.20;;;;;;;24.74;46.65;99794.69;30991763;28;97468;-62
2022/06/19 06:08:02;;;;;;;4.00;2.22;;;;;;;25.33;42.73;99790.50;30990266;28;96629;-62
2022/06/19 06:23:02;;;;;;;3.70;1.92;;;;;;;25.79;41.35;99775.84;30985893;28;96945;-61
2022/06/19 06:38:02;;;;;;;4.35;2.03;;;;;;;26.46;40.97;99769.06;31053374;28;97339;-62
2022/06/19 06:53:03;;;;;;;3.55;2.05;;;;;;;26.43;40.98;99766.94;31094088;28;97159;-60
2022/06/19 07:08:05;;;;;;;3.75;2.00;;;;;;;27.00;39.90;99773.50;31105364;28;97297;-72
2022/06/19 07:23:05;;;;;;;4.93;2.20;;;;;;;27.50;38.40;99736.81;30920991;27;97131;-74
2022/06/19 07:38:06;;;;;;;3.45;1.92;;;;;;;28.29;37.48;99736.19;30853896;28;97518;-66
2022/06/19 07:53:06;;;;;;;5.20;2.05;;;;;;;28.69;36.74;99727.56;30853744;28;97103;-72
2022/06/19 08:08:14;;;;;;;5.80;2.10;;;;;;;29.13;34.96;99695.19;30854764;28;96928;-73
2022/06/19 08:23:15;;;;;;;5.67;2.00;;;;;;;29.44;34.85;99706.31;30853241;28;96791;-67
2022/06/19 08:38:21;;;;;;;3.50;1.67;;;;;;;30.10;32.88;99714.16;30833531;28;97455;-73
2022/06/19 08:53:50;;;;;;;3.60;1.50;;;;;;;30.18;32.24;99696.09;30803712;28;97563;-73
2022/06/19 09:09:03;;;;;;;5.93;1.83;;;;;;;30.37;32.14;99682.16;30861983;28;97107;-72
2022/06/19 09:24:44;;;;;;;3.17;1.70;;;;;;;31.02;30.90;99679.84;30807060;28;96806;-65
2022/06/19 09:39:50;;;;;;;3.30;1.57;;;;;;;31.30;29.59;99668.56;30894958;28;97989;-64
2022/06/19 09:54:58;;;;;;;4.37;1.50;;;;;;;31.05;28.53;99663.50;30821741;28;96754;-75
2022/06/19 10:10:01;;;;;;;5.33;1.60;;;;;;;31.31;27.63;99661.94;30742810;28;97198;-73
2022/06/19 10:25:16;;;;;;;5.50;1.10;;;;;;;31.54;26.89;99657.91;30740447;28;96646;-62
2022/06/19 10:40:38;;;;;;;7.50;1.37;;;;;;;31.65;26.98;99603.34;30741376;28;96702;-69
2022/06/19 10:55:44;;;;;;;3.17;1.40;;;;;;;31.77;27.37;99591.69;30740145;28;96744;-72
2022/06/19 11:10:48;;;;;;;5.73;1.60;;;;;;;32.09;27.85;99580.41;30739362;28;96713;-75
2022/06/19 11:25:59;;;;;;;6.10;1.50;;;;;;;32.37;26.43;99540.25;30737526;28;96842;-63
2022/06/19 11:40:59;;;;;;;4.77;1.40;;;;;;;32.23;24.61;99573.56;30736493;28;97100;-63
2022/06/19 11:56:35;;;;;;;9.55;1.63;;;;;;;32.51;23.50;99514.41;30830247;28;97293;-62
2022/06/19 12:11:40;;;;;;;9.20;1.60;;;;;;;32.14;24.77;99497.59;30867258;28;97300;-66
2022/06/19 12:26:44;;;;;;;7.47;1.47;;;;;;;32.31;26.28;99491.19;30853261;28;97523;-70
2022/06/19 12:41:59;;;;;;;7.30;1.53;;;;;;;32.14;25.34;99525.94;30852315;28;96870;-71
2022/06/19 12:57:07;;;;;;;4.83;1.77;;;;;;;32.20;25.31;99460.44;30851866;28;96726;-63
2022/06/19 13:12:18;;;;;;;6.63;1.40;;;;;;;32.18;24.57;99465.50;30850848;28;96706;-71
2022/06/19 13:27:46;;;;;;;7.13;1.83;;;;;;;32.28;25.11;99421.00;30847893;28;96764;-71
2022/06/19 13:43:02;;;;;;;8.20;1.67;;;;;;;31.94;25.45;99398.03;30857351;28;96766;-62
2022/06/19 13:58:17;;;;;;;9.40;2.17;;;;;;;32.11;25.75;99379.78;30866721;28;96788;-71
2022/06/19 14:13:28;;;;;;;6.73;1.70;;;;;;;31.96;26.13;99376.47;30854904;28;97246;-71
2022/06/19 14:28:56;;;;;;;6.20;1.80;;;;;;;31.95;26.24;99316.22;30855172;28;97064;-70
2022/06/19 14:44:05;;;;;;;6.97;1.70;;;;;;;31.68;27.40;99343.91;30853114;28;97000;-64
2022/06/19 14:59:20;;;;;;;8.23;2.00;;;;;;;31.63;26.60;99319.34;30851081;28;97217;-72
2022/06/19 15:14:27;;;;;;;5.90;1.57;;;;;;;31.56;27.09;99291.50;30850662;28;98449;-69
2022/06/19 15:29:38;;;;;;;6.87;1.30;;;;;;;31.44;27.30;99307.91;30846584;28;97201;-62
2022/06/19 15:45:17;;;;;;;9.27;1.50;;;;;;;31.33;27.00;99264.28;30807526;28;97153;-67
2022/06/19 16:00:25;;;;;;;9.53;1.80;;;;;;;31.15;27.08;99265.50;30722885;28;97188;-65
2022/06/19 16:15:29;;;;;;;7.03;1.67;;;;;;;30.96;27.66;99291.44;30724361;28;97242;-61
2022/06/19 16:30:39;;;;;;;5.53;2.47;;;;;;;30.70;28.45;99273.09;30719673;28;97197;-61
2022/06/19 16:45:44;;;;;;;7.83;2.13;;;;;;;30.54;29.07;99269.25;30718585;28;97108;-65
2022/06/19 17:01:01;;;;;;;7.10;1.70;;;;;;;30.41;29.59;99275.69;30718092;28;97777;-67
2022/06/19 17:16:02;;;;;;;;;;;;;;;29.97;30.62;99265.53;30727356;28;96839;-63
2022/06/19 17:31:20;;;;;;;3.67;1.63;;;;;;;29.65;31.44;99251.13;30739467;28;96713;-72
2022/06/19 17:46:26;;;;;;;7.30;2.20;;;;;;;29.25;32.87;99248.44;30737576;28;97455;-63
2022/06/19 18:01:43;;;;;;;4.20;2.00;;;;;;;28.66;33.91;99243.97;30738301;28;97184;-69
2022/06/19 18:32:08;;;;;;;6.27;2.30;;;;;;;27.76;36.03;99216.56;30732733;28;97197;-70
2022/06/19 18:47:12;;;;;;;6.27;2.40;;;;;;;27.25;37.72;99230.22;30731827;28;97146;-71
2022/06/19 19:02:12;;;;;;;4.67;2.33;;;;;;;26.77;38.66;99219.69;30742565;28;96680;-74
2022/06/19 19:17:13;;;;;;;4.70;2.28;;;;;;;26.33;39.79;99238.97;30836023;28;98007;-68
2022/06/19 19:32:13;;;;;;;10.38;2.28;;;;;;;25.93;40.63;99273.97;30868655;28;96829;-64
2022/06/19 19:47:19;;;;;;;8.40;2.60;;;;;;;25.82;40.93;99272.47;30881294;28;96876;-71
2022/06/19 20:02:20;;;;;;;8.43;2.43;;;;;;;25.74;41.20;99264.94;30855632;28;97206;-66
2022/06/19 20:17:20;;;;;;;6.70;2.60;;;;;;;25.43;41.52;99249.00;30854131;28;103254;-66
2022/06/19 20:32:43;;;;;;;8.13;2.58;;;;;;;25.16;42.34;99251.19;30853515;28;96668;-63
2022/06/19 20:47:48;;;;;;;7.53;4.60;;;;;;;25.37;42.59;99364.66;30853285;28;96710;-65
2022/06/19 21:02:49;;;;;;;8.97;3.37;;;;;;;25.63;41.70;99368.72;30853151;28;96680;-62
2022/06/19 21:17:50;;;;;;;5.57;2.97;;;;;;;25.40;42.44;99361.38;30852226;28;97080;-63
2022/06/19 21:32:51;;;;;;;8.40;3.15;;;;;;;25.51;42.68;99354.69;30851694;28;98854;-64
2022/06/19 21:47:52;;;;;;;5.05;2.63;;;;;;;25.73;42.70;99365.06;30849049;28;96716;-63
2022/06/19 22:02:53;;;;;;;5.80;2.77;;;;;;;25.52;43.29;99383.59;30856161;28;97149;-62
2022/06/19 22:17:53;;;;;;;7.63;2.63;;;;;;;25.24;44.18;99399.63;30867054;28;96714;-63
2022/06/19 22:32:56;;;;;;;5.78;3.40;;;;;;;25.70;43.91;99413.91;30865253;28;97089;-63
2022/06/19 22:47:56;;;;;;;10.17;3.90;;;;;;;25.20;44.35;99414.94;30864780;28;97493;-62
2022/06/19 23:02:56;;;;;;;6.93;3.40;;;;;;;24.67;45.43;99429.22;30863300;28;97210;-63
2022/06/19 23:17:58;;;;;;;12.43;4.07;;;;;;;24.53;46.65;99456.25;30861462;28;97451;-63
2022/06/19 23:32:59;;;;;;;7.20;4.17;;;;;;;24.63;46.51;99456.22;30874771;28;97446;-64
2022/06/19 23:47:59;;;;;;;11.65;4.47;;;;;;;24.09;47.85;99467.91;30859074;28;97332;-64
